sensor_id;sensor_type;location;lat;lon;timestamp;P1;durP1;ratioP1;P2;durP2;ratioP2
44480;SDS011;30184;42.018;23.670;2022-08-06T00:00:49;7.47;;;5.75;;
44480;SDS011;30184;42.018;23.670;2022-08-06T00:03:18;9.20;;;6.03;;
44480;SDS011;30184;42.018;23.670;2022-08-06T00:05:47;6.82;;;5.63;;
44480;SDS011;30184;42.018;23.670;2022-08-06T00:08:18;9.13;;;6.72;;
44480;SDS011;30184;42.018;23.670;2022-08-06T00:10:47;16.60;;;6.40;;
44480;SDS011;30184;42.018;23.670;2022-08-06T00:13:17;9.10;;;6.15;;
44480;SDS011;30184;42.018;23.670;2022-08-06T00:15:46;8.35;;;5.97;;
44480;SDS011;30184;42.018;23.670;2022-08-06T00:18:15;7.35;;;5.82;;
44480;SDS011;30184;42.018;23.670;2022-08-06T00:20:44;9.65;;;6.60;;
44480;SDS011;30184;42.018;23.670;2022-08-06T00:23:13;10.27;;;5.45;;
44480;SDS011;30184;42.018;23.670;2022-08-06T00:25:43;8.95;;;6.22;;
44480;SDS011;30184;42.018;23.670;2022-08-06T00:28:13;7.32;;;5.93;;
44480;SDS011;30184;42.018;23.670;2022-08-06T00:30:44;6.65;;;5.85;;
44480;SDS011;30184;42.018;23.670;2022-08-06T00:33:13;9.38;;;6.45;;
44480;SDS011;30184;42.018;23.670;2022-08-06T00:35:42;8.63;;;6.32;;
44480;SDS011;30184;42.018;23.670;2022-08-06T00:38:12;7.53;;;6.10;;
44480;SDS011;30184;42.018;23.670;2022-08-06T00:40:41;8.85;;;6.20;;
44480;SDS011;30184;42.018;23.670;2022-08-06T00:43:12;9.40;;;5.93;;
44480;SDS011;30184;42.018;23.670;2022-08-06T00:45:41;7.90;;;5.57;;
44480;SDS011;30184;42.018;23.670;2022-08-06T00:48:11;8.82;;;6.28;;
44480;SDS011;30184;42.018;23.670;2022-08-06T00:50:41;6.53;;;5.22;;
44480;SDS011;30184;42.018;23.670;2022-08-06T00:53:10;7.78;;;6.00;;
44480;SDS011;30184;42.018;23.670;2022-08-06T00:55:39;7.13;;;5.78;;
44480;SDS011;30184;42.018;23.670;2022-08-06T00:58:08;8.07;;;5.80;;
44480;SDS011;30184;42.018;23.670;2022-08-06T01:00:38;8.88;;;6.20;;
44480;SDS011;30184;42.018;23.670;2022-08-06T01:03:07;10.18;;;5.93;;
44480;SDS011;30184;42.018;23.670;2022-08-06T01:05:39;7.75;;;5.78;;
44480;SDS011;30184;42.018;23.670;2022-08-06T01:08:08;7.95;;;6.15;;
44480;SDS011;30184;42.018;23.670;2022-08-06T01:10:37;7.65;;;6.10;;
44480;SDS011;30184;42.018;23.670;2022-08-06T01:13:07;10.48;;;6.53;;
44480;SDS011;30184;42.018;23.670;2022-08-06T01:15:36;7.53;;;6.05;;
44480;SDS011;30184;42.018;23.670;2022-08-06T01:18:07;7.15;;;6.10;;
44480;SDS011;30184;42.018;23.670;2022-08-06T01:20:50;7.50;;;5.82;;
44480;SDS011;30184;42.018;23.670;2022-08-06T01:23:35;9.45;;;5.90;;
44480;SDS011;30184;42.018;23.670;2022-08-06T01:26:23;8.07;;;5.72;;
44480;SDS011;30184;42.018;23.670;2022-08-06T01:29:02;8.88;;;6.32;;
44480;SDS011;30184;42.018;23.670;2022-08-06T01:31:34;7.03;;;5.60;;
44480;SDS011;30184;42.018;23.670;2022-08-06T01:34:13;8.50;;;6.47;;
44480;SDS011;30184;42.018;23.670;2022-08-06T01:36:49;7.78;;;5.88;;
44480;SDS011;30184;42.018;23.670;2022-08-06T01:39:22;7.47;;;5.88;;
44480;SDS011;30184;42.018;23.670;2022-08-06T01:41:53;9.68;;;5.70;;
44480;SDS011;30184;42.018;23.670;2022-08-06T01:44:30;7.80;;;5.78;;
44480;SDS011;30184;42.018;23.670;2022-08-06T01:47:03;6.93;;;5.50;;
44480;SDS011;30184;42.018;23.670;2022-08-06T01:49:39;8.52;;;6.07;;
44480;SDS011;30184;42.018;23.670;2022-08-06T01:52:10;10.80;;;6.03;;
44480;SDS011;30184;42.018;23.670;2022-08-06T01:54:43;8.65;;;5.95;;
44480;SDS011;30184;42.018;23.670;2022-08-06T01:57:17;8.38;;;6.15;;
44480;SDS011;30184;42.018;23.670;2022-08-06T01:59:51;13.80;;;6.43;;
44480;SDS011;30184;42.018;23.670;2022-08-06T02:02:24;8.32;;;5.82;;
44480;SDS011;30184;42.018;23.670;2022-08-06T02:04:57;8.52;;;6.07;;
44480;SDS011;30184;42.018;23.670;2022-08-06T02:07:32;8.23;;;6.05;;
44480;SDS011;30184;42.018;23.670;2022-08-06T02:10:05;8.93;;;6.45;;
44480;SDS011;30184;42.018;23.670;2022-08-06T02:12:36;10.45;;;6.60;;
44480;SDS011;30184;42.018;23.670;2022-08-06T02:15:13;8.65;;;5.47;;
44480;SDS011;30184;42.018;23.670;2022-08-06T02:17:49;8.50;;;5.80;;
44480;SDS011;30184;42.018;23.670;2022-08-06T02:20:23;9.23;;;6.13;;
44480;SDS011;30184;42.018;23.670;2022-08-06T02:23:02;6.57;;;5.25;;
44480;SDS011;30184;42.018;23.670;2022-08-06T02:25:52;7.35;;;5.45;;
44480;SDS011;30184;42.018;23.670;2022-08-06T02:28:26;9.25;;;6.13;;
44480;SDS011;30184;42.018;23.670;2022-08-06T02:30:57;7.85;;;5.90;;
44480;SDS011;30184;42.018;23.670;2022-08-06T02:33:27;7.78;;;5.72;;
44480;SDS011;30184;42.018;23.670;2022-08-06T02:35:58;11.60;;;5.47;;
44480;SDS011;30184;42.018;23.670;2022-08-06T02:38:33;8.40;;;5.97;;
44480;SDS011;30184;42.018;23.670;2022-08-06T02:41:08;7.95;;;5.93;;
44480;SDS011;30184;42.018;23.670;2022-08-06T02:43:47;7.70;;;5.90;;
44480;SDS011;30184;42.018;23.670;2022-08-06T02:46:23;7.43;;;6.00;;
44480;SDS011;30184;42.018;23.670;2022-08-06T02:48:56;9.87;;;6.50;;
44480;SDS011;30184;42.018;23.670;2022-08-06T02:51:31;12.80;;;6.22;;
44480;SDS011;30184;42.018;23.670;2022-08-06T02:54:03;8.70;;;5.80;;
44480;SDS011;30184;42.018;23.670;2022-08-06T02:56:37;7.78;;;6.00;;
44480;SDS011;30184;42.018;23.670;2022-08-06T02:59:11;7.50;;;6.03;;
44480;SDS011;30184;42.018;23.670;2022-08-06T03:01:47;10.20;;;6.45;;
44480;SDS011;30184;42.018;23.670;2022-08-06T03:04:19;9.05;;;6.70;;
44480;SDS011;30184;42.018;23.670;2022-08-06T03:06:52;12.18;;;6.63;;
44480;SDS011;30184;42.018;23.670;2022-08-06T03:09:22;11.25;;;6.50;;
44480;SDS011;30184;42.018;23.670;2022-08-06T03:11:53;7.28;;;5.82;;
44480;SDS011;30184;42.018;23.670;2022-08-06T03:14:24;13.35;;;6.10;;
44480;SDS011;30184;42.018;23.670;2022-08-06T03:16:57;10.25;;;5.75;;
44480;SDS011;30184;42.018;23.670;2022-08-06T03:19:28;8.07;;;5.90;;
44480;SDS011;30184;42.018;23.670;2022-08-06T03:22:00;10.57;;;5.72;;
44480;SDS011;30184;42.018;23.670;2022-08-06T03:24:31;9.93;;;6.22;;
44480;SDS011;30184;42.018;23.670;2022-08-06T03:27:03;7.30;;;5.57;;
44480;SDS011;30184;42.018;23.670;2022-08-06T03:29:34;8.25;;;5.95;;
44480;SDS011;30184;42.018;23.670;2022-08-06T03:32:06;9.23;;;6.28;;
44480;SDS011;30184;42.018;23.670;2022-08-06T03:34:36;7.65;;;6.20;;
44480;SDS011;30184;42.018;23.670;2022-08-06T03:37:07;7.20;;;5.95;;
44480;SDS011;30184;42.018;23.670;2022-08-06T03:39:37;10.52;;;5.68;;
44480;SDS011;30184;42.018;23.670;2022-08-06T03:42:10;8.73;;;5.60;;
44480;SDS011;30184;42.018;23.670;2022-08-06T03:44:39;12.93;;;6.40;;
44480;SDS011;30184;42.018;23.670;2022-08-06T03:47:12;15.23;;;6.30;;
44480;SDS011;30184;42.018;23.670;2022-08-06T03:49:50;9.25;;;5.70;;
44480;SDS011;30184;42.018;23.670;2022-08-06T03:52:23;10.18;;;5.97;;
44480;SDS011;30184;42.018;23.670;2022-08-06T03:54:57;10.07;;;6.40;;
44480;SDS011;30184;42.018;23.670;2022-08-06T03:57:32;9.35;;;6.18;;
44480;SDS011;30184;42.018;23.670;2022-08-06T04:00:04;9.35;;;6.00;;
44480;SDS011;30184;42.018;23.670;2022-08-06T04:02:44;10.70;;;7.38;;
44480;SDS011;30184;42.018;23.670;2022-08-06T04:05:16;10.32;;;8.18;;
44480;SDS011;30184;42.018;23.670;2022-08-06T04:07:47;28.25;;;17.50;;
44480;SDS011;30184;42.018;23.670;2022-08-06T04:10:23;16.45;;;11.68;;
44480;SDS011;30184;42.018;23.670;2022-08-06T04:12:55;11.48;;;6.95;;
44480;SDS011;30184;42.018;23.670;2022-08-06T04:15:25;25.67;;;16.65;;
44480;SDS011;30184;42.018;23.670;2022-08-06T04:17:58;31.20;;;23.17;;
44480;SDS011;30184;42.018;23.670;2022-08-06T04:20:28;33.22;;;23.38;;
44480;SDS011;30184;42.018;23.670;2022-08-06T04:22:58;31.33;;;20.55;;
44480;SDS011;30184;42.018;23.670;2022-08-06T04:25:30;30.25;;;19.98;;
44480;SDS011;30184;42.018;23.670;2022-08-06T04:28:03;20.63;;;15.35;;
44480;SDS011;30184;42.018;23.670;2022-08-06T04:30:37;39.47;;;22.55;;
44480;SDS011;30184;42.018;23.670;2022-08-06T04:33:13;39.63;;;25.42;;
44480;SDS011;30184;42.018;23.670;2022-08-06T04:35:44;47.80;;;32.67;;
44480;SDS011;30184;42.018;23.670;2022-08-06T04:38:17;86.03;;;55.35;;
44480;SDS011;30184;42.018;23.670;2022-08-06T04:40:48;76.32;;;49.63;;
44480;SDS011;30184;42.018;23.670;2022-08-06T04:43:20;62.90;;;43.15;;
44480;SDS011;30184;42.018;23.670;2022-08-06T04:45:57;55.97;;;40.58;;
44480;SDS011;30184;42.018;23.670;2022-08-06T04:48:29;47.42;;;32.58;;
44480;SDS011;30184;42.018;23.670;2022-08-06T04:51:01;27.63;;;20.75;;
44480;SDS011;30184;42.018;23.670;2022-08-06T04:53:35;22.63;;;16.20;;
44480;SDS011;30184;42.018;23.670;2022-08-06T04:56:12;18.05;;;13.30;;
44480;SDS011;30184;42.018;23.670;2022-08-06T04:58:43;23.88;;;11.90;;
44480;SDS011;30184;42.018;23.670;2022-08-06T05:01:16;16.33;;;11.13;;
44480;SDS011;30184;42.018;23.670;2022-08-06T05:03:49;10.13;;;8.40;;
44480;SDS011;30184;42.018;23.670;2022-08-06T05:06:22;12.43;;;9.30;;
44480;SDS011;30184;42.018;23.670;2022-08-06T05:08:58;12.25;;;9.40;;
44480;SDS011;30184;42.018;23.670;2022-08-06T05:11:30;13.55;;;9.13;;
44480;SDS011;30184;42.018;23.670;2022-08-06T05:14:02;16.17;;;12.05;;
44480;SDS011;30184;42.018;23.670;2022-08-06T05:16:38;13.10;;;10.93;;
44480;SDS011;30184;42.018;23.670;2022-08-06T05:19:11;12.73;;;9.45;;
44480;SDS011;30184;42.018;23.670;2022-08-06T05:21:45;16.42;;;12.40;;
44480;SDS011;30184;42.018;23.670;2022-08-06T05:24:16;13.63;;;12.18;;
44480;SDS011;30184;42.018;23.670;2022-08-06T05:26:45;15.52;;;9.73;;
44480;SDS011;30184;42.018;23.670;2022-08-06T05:29:17;10.02;;;8.05;;
44480;SDS011;30184;42.018;23.670;2022-08-06T05:31:57;15.75;;;8.00;;
44480;SDS011;30184;42.018;23.670;2022-08-06T05:34:32;15.30;;;7.80;;
44480;SDS011;30184;42.018;23.670;2022-08-06T05:37:01;10.70;;;7.78;;
44480;SDS011;30184;42.018;23.670;2022-08-06T05:39:30;11.43;;;7.05;;
44480;SDS011;30184;42.018;23.670;2022-08-06T05:41:59;7.90;;;6.40;;
44480;SDS011;30184;42.018;23.670;2022-08-06T05:44:29;11.10;;;7.30;;
44480;SDS011;30184;42.018;23.670;2022-08-06T05:47:10;11.32;;;7.72;;
44480;SDS011;30184;42.018;23.670;2022-08-06T05:49:54;17.48;;;10.30;;
44480;SDS011;30184;42.018;23.670;2022-08-06T05:52:37;21.98;;;13.60;;
44480;SDS011;30184;42.018;23.670;2022-08-06T05:55:14;17.73;;;11.15;;
44480;SDS011;30184;42.018;23.670;2022-08-06T05:57:48;21.40;;;11.43;;
44480;SDS011;30184;42.018;23.670;2022-08-06T06:00:20;13.07;;;9.35;;
44480;SDS011;30184;42.018;23.670;2022-08-06T06:02:52;16.13;;;8.70;;
44480;SDS011;30184;42.018;23.670;2022-08-06T06:05:25;33.58;;;10.27;;
44480;SDS011;30184;42.018;23.670;2022-08-06T06:07:55;12.52;;;9.13;;
44480;SDS011;30184;42.018;23.670;2022-08-06T06:10:24;15.48;;;8.90;;
44480;SDS011;30184;42.018;23.670;2022-08-06T06:12:54;12.48;;;8.20;;
44480;SDS011;30184;42.018;23.670;2022-08-06T06:15:24;14.20;;;8.60;;
44480;SDS011;30184;42.018;23.670;2022-08-06T06:17:58;11.20;;;7.85;;
44480;SDS011;30184;42.018;23.670;2022-08-06T06:20:41;8.57;;;6.03;;
44480;SDS011;30184;42.018;23.670;2022-08-06T06:23:19;47.35;;;8.77;;
44480;SDS011;30184;42.018;23.670;2022-08-06T06:28:28;29.63;;;5.82;;
44480;SDS011;30184;42.018;23.670;2022-08-06T06:31:07;16.20;;;5.00;;
44480;SDS011;30184;42.018;23.670;2022-08-06T06:33:44;18.83;;;4.93;;
44480;SDS011;30184;42.018;23.670;2022-08-06T06:36:22;8.50;;;4.80;;
44480;SDS011;30184;42.018;23.670;2022-08-06T06:38:58;8.20;;;5.57;;
44480;SDS011;30184;42.018;23.670;2022-08-06T06:41:33;13.80;;;9.20;;
44480;SDS011;30184;42.018;23.670;2022-08-06T06:44:08;8.15;;;4.88;;
44480;SDS011;30184;42.018;23.670;2022-08-06T06:46:43;12.68;;;6.82;;
44480;SDS011;30184;42.018;23.670;2022-08-06T06:49:20;8.40;;;6.27;;
44480;SDS011;30184;42.018;23.670;2022-08-06T06:51:57;10.40;;;6.40;;
44480;SDS011;30184;42.018;23.670;2022-08-06T06:54:32;7.20;;;5.75;;
44480;SDS011;30184;42.018;23.670;2022-08-06T06:57:09;8.20;;;5.82;;
44480;SDS011;30184;42.018;23.670;2022-08-06T06:59:42;13.95;;;6.18;;
44480;SDS011;30184;42.018;23.670;2022-08-06T07:02:16;9.82;;;5.85;;
44480;SDS011;30184;42.018;23.670;2022-08-06T07:04:48;8.38;;;5.63;;
44480;SDS011;30184;42.018;23.670;2022-08-06T07:07:20;12.27;;;5.25;;
44480;SDS011;30184;42.018;23.670;2022-08-06T07:09:50;39.38;;;14.73;;
44480;SDS011;30184;42.018;23.670;2022-08-06T07:12:22;8.32;;;4.70;;
44480;SDS011;30184;42.018;23.670;2022-08-06T07:14:54;10.50;;;5.90;;
44480;SDS011;30184;42.018;23.670;2022-08-06T07:17:24;8.73;;;5.90;;
44480;SDS011;30184;42.018;23.670;2022-08-06T07:19:56;7.55;;;5.20;;
44480;SDS011;30184;42.018;23.670;2022-08-06T07:22:29;12.73;;;5.70;;
44480;SDS011;30184;42.018;23.670;2022-08-06T07:25:02;15.20;;;5.53;;
44480;SDS011;30184;42.018;23.670;2022-08-06T07:27:55;9.25;;;5.63;;
44480;SDS011;30184;42.018;23.670;2022-08-06T07:30:24;9.35;;;5.60;;
44480;SDS011;30184;42.018;23.670;2022-08-06T07:32:53;18.65;;;5.57;;
44480;SDS011;30184;42.018;23.670;2022-08-06T07:35:25;8.77;;;5.97;;
44480;SDS011;30184;42.018;23.670;2022-08-06T07:37:55;7.57;;;5.57;;
44480;SDS011;30184;42.018;23.670;2022-08-06T07:40:28;9.73;;;5.07;;
44480;SDS011;30184;42.018;23.670;2022-08-06T07:43:01;8.32;;;4.90;;
44480;SDS011;30184;42.018;23.670;2022-08-06T07:45:34;81.75;;;9.32;;
44480;SDS011;30184;42.018;23.670;2022-08-06T07:48:05;26.25;;;8.18;;
44480;SDS011;30184;42.018;23.670;2022-08-06T07:50:38;10.25;;;7.65;;
44480;SDS011;30184;42.018;23.670;2022-08-06T07:53:13;6.57;;;5.68;;
44480;SDS011;30184;42.018;23.670;2022-08-06T07:55:44;7.18;;;5.25;;
44480;SDS011;30184;42.018;23.670;2022-08-06T07:58:15;12.40;;;5.20;;
44480;SDS011;30184;42.018;23.670;2022-08-06T08:00:45;8.60;;;5.60;;
44480;SDS011;30184;42.018;23.670;2022-08-06T08:03:17;10.18;;;4.88;;
44480;SDS011;30184;42.018;23.670;2022-08-06T08:06:05;7.75;;;4.68;;
44480;SDS011;30184;42.018;23.670;2022-08-06T08:08:52;5.43;;;3.92;;
44480;SDS011;30184;42.018;23.670;2022-08-06T08:11:24;9.13;;;4.10;;
44480;SDS011;30184;42.018;23.670;2022-08-06T08:13:54;9.80;;;3.88;;
44480;SDS011;30184;42.018;23.670;2022-08-06T08:16:29;5.72;;;3.92;;
44480;SDS011;30184;42.018;23.670;2022-08-06T08:19:01;7.78;;;5.07;;
44480;SDS011;30184;42.018;23.670;2022-08-06T08:25:31;4.82;;;3.30;;
44480;SDS011;30184;42.018;23.670;2022-08-06T08:28:00;9.07;;;3.40;;
44480;SDS011;30184;42.018;23.670;2022-08-06T08:30:32;5.50;;;3.42;;
44480;SDS011;30184;42.018;23.670;2022-08-06T08:33:01;6.28;;;2.85;;
44480;SDS011;30184;42.018;23.670;2022-08-06T08:35:30;4.20;;;2.90;;
44480;SDS011;30184;42.018;23.670;2022-08-06T08:38:14;8.20;;;3.00;;
44480;SDS011;30184;42.018;23.670;2022-08-06T08:53:59;4.95;;;2.60;;
44480;SDS011;30184;42.018;23.670;2022-08-06T08:57:06;4.03;;;2.95;;
44480;SDS011;30184;42.018;23.670;2022-08-06T08:59:38;3.97;;;2.72;;
44480;SDS011;30184;42.018;23.670;2022-08-06T09:02:19;4.13;;;2.95;;
44480;SDS011;30184;42.018;23.670;2022-08-06T09:05:11;5.22;;;2.80;;
44480;SDS011;30184;42.018;23.670;2022-08-06T09:07:41;4.85;;;2.70;;
44480;SDS011;30184;42.018;23.670;2022-08-06T09:10:12;6.22;;;2.60;;
44480;SDS011;30184;42.018;23.670;2022-08-06T09:12:42;5.22;;;2.85;;
44480;SDS011;30184;42.018;23.670;2022-08-06T09:15:36;9.00;;;2.90;;
44480;SDS011;30184;42.018;23.670;2022-08-06T09:18:05;5.40;;;3.65;;
44480;SDS011;30184;42.018;23.670;2022-08-06T09:20:35;9.00;;;3.42;;
44480;SDS011;30184;42.018;23.670;2022-08-06T09:23:07;3.55;;;2.70;;
44480;SDS011;30184;42.018;23.670;2022-08-06T09:25:41;4.03;;;2.97;;
44480;SDS011;30184;42.018;23.670;2022-08-06T09:28:26;5.40;;;3.00;;
44480;SDS011;30184;42.018;23.670;2022-08-06T09:31:05;6.65;;;2.97;;
44480;SDS011;30184;42.018;23.670;2022-08-06T09:34:06;8.70;;;4.53;;
44480;SDS011;30184;42.018;23.670;2022-08-06T09:36:58;8.77;;;4.50;;
44480;SDS011;30184;42.018;23.670;2022-08-06T09:39:30;5.20;;;3.00;;
44480;SDS011;30184;42.018;23.670;2022-08-06T09:42:04;4.43;;;3.38;;
44480;SDS011;30184;42.018;23.670;2022-08-06T09:44:34;6.22;;;3.35;;
44480;SDS011;30184;42.018;23.670;2022-08-06T09:47:22;6.68;;;3.25;;
44480;SDS011;30184;42.018;23.670;2022-08-06T10:04:46;4.82;;;2.22;;
44480;SDS011;30184;42.018;23.670;2022-08-06T10:08:15;6.40;;;3.00;;
44480;SDS011;30184;42.018;23.670;2022-08-06T10:11:14;4.88;;;3.20;;
44480;SDS011;30184;42.018;23.670;2022-08-06T10:13:46;4.82;;;2.53;;
44480;SDS011;30184;42.018;23.670;2022-08-06T10:16:26;7.88;;;3.53;;
44480;SDS011;30184;42.018;23.670;2022-08-06T10:19:02;4.53;;;3.13;;
44480;SDS011;30184;42.018;23.670;2022-08-06T10:21:35;4.47;;;2.85;;
44480;SDS011;30184;42.018;23.670;2022-08-06T10:24:11;6.93;;;3.60;;
44480;SDS011;30184;42.018;23.670;2022-08-06T10:26:42;5.25;;;2.90;;
44480;SDS011;30184;42.018;23.670;2022-08-06T10:29:14;5.63;;;2.80;;
44480;SDS011;30184;42.018;23.670;2022-08-06T10:31:46;4.20;;;2.78;;
44480;SDS011;30184;42.018;23.670;2022-08-06T10:34:22;4.43;;;3.25;;
44480;SDS011;30184;42.018;23.670;2022-08-06T10:36:58;4.22;;;2.97;;
44480;SDS011;30184;42.018;23.670;2022-08-06T10:39:35;4.95;;;2.97;;
44480;SDS011;30184;42.018;23.670;2022-08-06T10:42:08;8.27;;;3.50;;
44480;SDS011;30184;42.018;23.670;2022-08-06T10:44:47;6.65;;;3.40;;
44480;SDS011;30184;42.018;23.670;2022-08-06T10:47:23;5.15;;;3.80;;
44480;SDS011;30184;42.018;23.670;2022-08-06T10:49:55;8.50;;;3.53;;
44480;SDS011;30184;42.018;23.670;2022-08-06T10:52:29;11.40;;;3.80;;
44480;SDS011;30184;42.018;23.670;2022-08-06T10:55:13;7.72;;;3.30;;
44480;SDS011;30184;42.018;23.670;2022-08-06T10:57:45;4.82;;;3.72;;
44480;SDS011;30184;42.018;23.670;2022-08-06T11:00:18;7.82;;;3.85;;
44480;SDS011;30184;42.018;23.670;2022-08-06T11:22:02;7.38;;;4.32;;
44480;SDS011;30184;42.018;23.670;2022-08-06T11:26:02;8.63;;;4.05;;
44480;SDS011;30184;42.018;23.670;2022-08-06T11:28:57;7.80;;;3.80;;
44480;SDS011;30184;42.018;23.670;2022-08-06T11:36:07;9.80;;;3.70;;
44480;SDS011;30184;42.018;23.670;2022-08-06T12:03:48;5.57;;;3.85;;
44480;SDS011;30184;42.018;23.670;2022-08-06T14:11:30;4.10;;;3.20;;
44480;SDS011;30184;42.018;23.670;2022-08-06T14:46:56;7.47;;;4.13;;
44480;SDS011;30184;42.018;23.670;2022-08-06T14:49:35;5.40;;;4.20;;
44480;SDS011;30184;42.018;23.670;2022-08-06T14:52:08;6.05;;;3.50;;
44480;SDS011;30184;42.018;23.670;2022-08-06T14:55:34;8.90;;;3.90;;
44480;SDS011;30184;42.018;23.670;2022-08-06T15:01:27;5.47;;;3.97;;
44480;SDS011;30184;42.018;23.670;2022-08-06T15:04:01;4.82;;;3.45;;
44480;SDS011;30184;42.018;23.670;2022-08-06T15:06:39;8.10;;;3.70;;
44480;SDS011;30184;42.018;23.670;2022-08-06T15:09:11;7.65;;;3.45;;
44480;SDS011;30184;42.018;23.670;2022-08-06T15:11:59;17.15;;;4.28;;
44480;SDS011;30184;42.018;23.670;2022-08-06T15:15:48;4.95;;;3.47;;
44480;SDS011;30184;42.018;23.670;2022-08-06T15:18:26;5.47;;;3.60;;
44480;SDS011;30184;42.018;23.670;2022-08-06T15:21:18;4.30;;;3.53;;
44480;SDS011;30184;42.018;23.670;2022-08-06T15:23:50;5.53;;;3.90;;
44480;SDS011;30184;42.018;23.670;2022-08-06T15:26:33;4.97;;;3.47;;
44480;SDS011;30184;42.018;23.670;2022-08-06T15:35:06;6.40;;;3.65;;
44480;SDS011;30184;42.018;23.670;2022-08-06T15:37:48;4.47;;;3.13;;
44480;SDS011;30184;42.018;23.670;2022-08-06T15:40:20;4.35;;;3.28;;
44480;SDS011;30184;42.018;23.670;2022-08-06T15:42:50;3.92;;;2.97;;
44480;SDS011;30184;42.018;23.670;2022-08-06T15:45:20;4.75;;;3.67;;
44480;SDS011;30184;42.018;23.670;2022-08-06T15:48:31;5.05;;;3.67;;
44480;SDS011;30184;42.018;23.670;2022-08-06T15:51:02;9.15;;;4.60;;
44480;SDS011;30184;42.018;23.670;2022-08-06T15:53:36;6.10;;;2.55;;
44480;SDS011;30184;42.018;23.670;2022-08-06T15:56:28;5.25;;;2.80;;
44480;SDS011;30184;42.018;23.670;2022-08-06T15:59:06;5.13;;;3.50;;
44480;SDS011;30184;42.018;23.670;2022-08-06T16:02:06;5.97;;;4.20;;
44480;SDS011;30184;42.018;23.670;2022-08-06T16:04:42;6.38;;;3.42;;
44480;SDS011;30184;42.018;23.670;2022-08-06T16:07:32;6.80;;;3.55;;
44480;SDS011;30184;42.018;23.670;2022-08-06T16:13:03;11.60;;;6.97;;
44480;SDS011;30184;42.018;23.670;2022-08-06T16:16:59;9.52;;;4.60;;
44480;SDS011;30184;42.018;23.670;2022-08-06T16:19:59;8.52;;;5.28;;
44480;SDS011;30184;42.018;23.670;2022-08-06T16:22:28;9.55;;;6.10;;
44480;SDS011;30184;42.018;23.670;2022-08-06T16:25:02;8.32;;;4.72;;
44480;SDS011;30184;42.018;23.670;2022-08-06T16:27:32;7.15;;;4.80;;
44480;SDS011;30184;42.018;23.670;2022-08-06T16:30:01;8.10;;;5.30;;
44480;SDS011;30184;42.018;23.670;2022-08-06T16:32:33;6.03;;;4.10;;
44480;SDS011;30184;42.018;23.670;2022-08-06T16:35:09;4.82;;;3.05;;
44480;SDS011;30184;42.018;23.670;2022-08-06T16:37:52;7.32;;;5.55;;
44480;SDS011;30184;42.018;23.670;2022-08-06T16:40:26;11.52;;;6.43;;
44480;SDS011;30184;42.018;23.670;2022-08-06T16:42:56;10.15;;;6.07;;
44480;SDS011;30184;42.018;23.670;2022-08-06T16:45:25;8.60;;;5.50;;
44480;SDS011;30184;42.018;23.670;2022-08-06T16:52:30;5.68;;;4.05;;
44480;SDS011;30184;42.018;23.670;2022-08-06T16:55:11;7.53;;;3.88;;
44480;SDS011;30184;42.018;23.670;2022-08-06T17:01:24;11.52;;;7.15;;
44480;SDS011;30184;42.018;23.670;2022-08-06T17:04:03;10.95;;;5.38;;
44480;SDS011;30184;42.018;23.670;2022-08-06T17:06:49;9.90;;;5.32;;
44480;SDS011;30184;42.018;23.670;2022-08-06T17:09:48;7.07;;;5.43;;
44480;SDS011;30184;42.018;23.670;2022-08-06T17:20:24;9.18;;;5.30;;
44480;SDS011;30184;42.018;23.670;2022-08-06T17:20:43;7.60;;;5.20;;
44480;SDS011;30184;42.018;23.670;2022-08-06T17:23:42;8.88;;;5.18;;
44480;SDS011;30184;42.018;23.670;2022-08-06T17:31:47;9.27;;;5.00;;
44480;SDS011;30184;42.018;23.670;2022-08-06T17:35:30;12.25;;;5.93;;
44480;SDS011;30184;42.018;23.670;2022-08-06T17:37:57;7.18;;;4.20;;
44480;SDS011;30184;42.018;23.670;2022-08-06T17:41:02;8.82;;;4.82;;
44480;SDS011;30184;42.018;23.670;2022-08-06T17:44:06;9.07;;;4.47;;
44480;SDS011;30184;42.018;23.670;2022-08-06T17:46:38;9.40;;;4.40;;
44480;SDS011;30184;42.018;23.670;2022-08-06T17:50:10;7.53;;;4.60;;
44480;SDS011;30184;42.018;23.670;2022-08-06T17:52:39;8.07;;;5.30;;
44480;SDS011;30184;42.018;23.670;2022-08-06T17:55:08;8.70;;;4.68;;
44480;SDS011;30184;42.018;23.670;2022-08-06T17:57:56;8.48;;;5.20;;
44480;SDS011;30184;42.018;23.670;2022-08-06T18:00:32;12.43;;;5.63;;
44480;SDS011;30184;42.018;23.670;2022-08-06T18:03:08;9.60;;;4.88;;
44480;SDS011;30184;42.018;23.670;2022-08-06T18:05:43;9.30;;;5.20;;
44480;SDS011;30184;42.018;23.670;2022-08-06T18:08:17;9.90;;;5.35;;
44480;SDS011;30184;42.018;23.670;2022-08-06T18:11:26;10.15;;;5.18;;
44480;SDS011;30184;42.018;23.670;2022-08-06T18:19:45;10.45;;;5.60;;
44480;SDS011;30184;42.018;23.670;2022-08-06T18:22:25;8.90;;;4.95;;
44480;SDS011;30184;42.018;23.670;2022-08-06T18:24:55;7.22;;;5.20;;
44480;SDS011;30184;42.018;23.670;2022-08-06T18:27:54;7.50;;;5.07;;
44480;SDS011;30184;42.018;23.670;2022-08-06T18:31:46;10.75;;;6.10;;
44480;SDS011;30184;42.018;23.670;2022-08-06T18:34:23;8.20;;;5.70;;
44480;SDS011;30184;42.018;23.670;2022-08-06T18:36:55;8.55;;;5.63;;
44480;SDS011;30184;42.018;23.670;2022-08-06T18:39:29;8.35;;;5.50;;
44480;SDS011;30184;42.018;23.670;2022-08-06T18:42:07;9.40;;;5.00;;
44480;SDS011;30184;42.018;23.670;2022-08-06T18:44:51;7.60;;;5.10;;
44480;SDS011;30184;42.018;23.670;2022-08-06T18:47:22;22.83;;;6.57;;
44480;SDS011;30184;42.018;23.670;2022-08-06T18:51:06;7.47;;;5.00;;
44480;SDS011;30184;42.018;23.670;2022-08-06T19:09:09;7.10;;;5.57;;
44480;SDS011;30184;42.018;23.670;2022-08-06T19:12:06;8.95;;;5.45;;
44480;SDS011;30184;42.018;23.670;2022-08-06T19:14:37;7.35;;;5.53;;
44480;SDS011;30184;42.018;23.670;2022-08-06T19:17:12;9.05;;;5.53;;
44480;SDS011;30184;42.018;23.670;2022-08-06T19:19:44;7.50;;;5.72;;
44480;SDS011;30184;42.018;23.670;2022-08-06T19:22:18;9.32;;;5.30;;
44480;SDS011;30184;42.018;23.670;2022-08-06T19:24:56;13.15;;;7.82;;
44480;SDS011;30184;42.018;23.670;2022-08-06T19:27:28;16.00;;;11.63;;
44480;SDS011;30184;42.018;23.670;2022-08-06T19:29:58;9.10;;;5.32;;
44480;SDS011;30184;42.018;23.670;2022-08-06T19:32:27;9.20;;;5.82;;
44480;SDS011;30184;42.018;23.670;2022-08-06T19:34:56;10.15;;;6.63;;
44480;SDS011;30184;42.018;23.670;2022-08-06T19:37:31;9.05;;;6.15;;
44480;SDS011;30184;42.018;23.670;2022-08-06T19:40:17;7.70;;;5.38;;
44480;SDS011;30184;42.018;23.670;2022-08-06T19:43:03;6.87;;;5.47;;
44480;SDS011;30184;42.018;23.670;2022-08-06T19:45:32;12.88;;;5.90;;
44480;SDS011;30184;42.018;23.670;2022-08-06T19:48:02;7.28;;;5.63;;
44480;SDS011;30184;42.018;23.670;2022-08-06T19:50:31;10.13;;;5.35;;
44480;SDS011;30184;42.018;23.670;2022-08-06T19:53:02;10.50;;;6.00;;
44480;SDS011;30184;42.018;23.670;2022-08-06T19:55:33;8.55;;;5.60;;
44480;SDS011;30184;42.018;23.670;2022-08-06T19:58:06;8.73;;;6.03;;
44480;SDS011;30184;42.018;23.670;2022-08-06T20:00:37;11.50;;;5.07;;
44480;SDS011;30184;42.018;23.670;2022-08-06T20:03:10;12.75;;;6.75;;
44480;SDS011;30184;42.018;23.670;2022-08-06T20:05:40;11.45;;;6.10;;
44480;SDS011;30184;42.018;23.670;2022-08-06T20:08:13;10.48;;;5.93;;
44480;SDS011;30184;42.018;23.670;2022-08-06T20:10:43;12.35;;;6.13;;
44480;SDS011;30184;42.018;23.670;2022-08-06T20:13:12;6.53;;;5.35;;
44480;SDS011;30184;42.018;23.670;2022-08-06T20:15:41;7.68;;;5.70;;
44480;SDS011;30184;42.018;23.670;2022-08-06T20:18:10;10.18;;;6.63;;